Time,TemperatureF,DewpointF,PressureIn,WindDirection,WindDirectionDegrees,WindSpeedMPH,WindSpeedGustMPH,Humidity,HourlyPrecipIn,Conditions,Clouds,dailyrainin,SoftwareType,DateUTC
2013-07-14 00:01:00,73.6,72.7,30.30,NE,51,0.0,0.0,97,0.00,,,0.00,meteobridge,2013-07-14 04:01:00,
2013-07-14 00:02:00,73.6,72.7,30.30,NE,51,0.0,0.0,97,0.00,,,0.00,meteobridge,2013-07-14 04:02:00,
2013-07-14 00:03:00,73.6,72.7,30.30,NE,51,0.0,0.0,97,0.00,,,0.00,meteobridge,2013-07-14 04:03:00,
2013-07-14 00:06:00,73.6,72.7,30.30,NE,51,0.0,0.0,97,0.00,,,0.00,meteobridge,2013-07-14 04:06:00,
2013-07-14 00:11:00,73.6,72.7,30.30,NE,51,0.0,0.0,97,0.00,,,0.00,meteobridge,2013-07-14 04:11:00,
2013-07-14 00:17:00,73.6,72.7,30.30,NE,51,0.0,0.0,97,0.00,,,0.00,meteobridge,2013-07-14 04:17:00,
2013-07-14 00:22:00,73.4,72.5,30.29,NE,51,0.0,0.0,97,0.00,,,0.00,meteobridge,2013-07-14 04:22:00,
2013-07-14 00:28:00,73.4,72.5,30.29,NE,51,0.0,0.0,97,0.00,,,0.00,meteobridge,2013-07-14 04:28:00,
2013-07-14 00:33:00,73.4,72.5,30.29,NE,51,0.0,0.0,97,0.00,,,0.00,meteobridge,2013-07-14 04:33:00,
2013-07-14 00:38:00,73.4,72.5,30.29,NE,51,0.0,0.0,97,0.00,,,0.00,meteobridge,2013-07-14 04:38:00,
2013-07-14 00:43:00,73.4,72.5,30.29,NE,51,0.0,0.0,97,0.00,,,0.00,meteobridge,2013-07-14 04:43:00,
2013-07-14 00:49:00,73.4,72.5,30.30,NE,51,0.0,0.0,97,0.00,,,0.00,meteobridge,2013-07-14 04:49:00,
2013-07-14 00:54:00,73.4,72.5,30.30,NE,51,0.0,0.0,97,0.00,,,0.00,meteobridge,2013-07-14 04:54:00,
2013-07-14 00:59:00,73.4,72.5,30.30,NE,51,0.0,0.0,97,0.00,,,0.00,meteobridge,2013-07-14 04:59:00,
2013-07-14 01:04:00,73.4,72.5,30.30,NE,51,0.0,0.0,97,0.00,,,0.00,meteobridge,2013-07-14 05:04:00,
2013-07-14 01:10:00,73.4,72.5,30.30,NE,51,0.0,0.0,97,0.00,,,0.00,meteobridge,2013-07-14 05:10:00,
2013-07-14 01:15:00,73.4,72.5,30.30,NE,51,0.0,0.0,97,0.00,,,0.00,meteobridge,2013-07-14 05:15:00,
2013-07-14 01:20:00,73.4,72.5,30.30,NE,51,0.0,0.0,97,0.00,,,0.00,meteobridge,2013-07-14 05:20:00,
2013-07-14 01:26:00,73.4,72.5,30.30,NE,51,0.0,0.0,97,0.00,,,0.00,meteobridge,2013-07-14 05:26:00,
2013-07-14 01:31:00,73.4,72.5,30.30,NE,51,0.0,0.0,97,0.00,,,0.00,meteobridge,2013-07-14 05:31:00,
2013-07-14 01:36:00,73.4,72.5,30.30,NE,51,0.0,0.0,97,0.00,,,0.00,meteobridge,2013-07-14 05:36:00,
2013-07-14 01:42:00,73.4,72.5,30.30,NE,51,0.0,0.0,97,0.00,,,0.00,meteobridge,2013-07-14 05:42:00,
2013-07-14 01:47:00,73.2,72.3,30.30,NE,51,0.0,0.0,97,0.00,,,0.00,meteobridge,2013-07-14 05:47:00,
2013-07-14 01:53:00,73.2,72.3,30.30,NE,51,0.0,0.0,97,0.00,,,0.00,meteobridge,2013-07-14 05:53:00,
2013-07-14 01:58:00,73.4,72.5,30.30,NE,51,0.0,0.0,97,0.00,,,0.00,meteobridge,2013-07-14 05:58:00,
2013-07-14 02:03:00,73.2,72.3,30.30,NE,51,0.0,0.0,97,0.00,,,0.00,meteobridge,2013-07-14 06:03:00,
2013-07-14 02:08:00,73.2,72.3,30.30,South,175,0.0,0.9,97,0.00,,,0.00,meteobridge,2013-07-14 06:08:00,
2013-07-14 02:14:00,73.2,72.3,30.31,South,175,0.0,0.0,97,0.00,,,0.00,meteobridge,2013-07-14 06:14:00,
2013-07-14 02:19:00,73.2,72.3,30.30,South,175,0.0,0.0,97,0.00,,,0.00,meteobridge,2013-07-14 06:19:00,
2013-07-14 02:24:00,73.2,72.3,30.30,South,175,0.0,0.9,97,0.00,,,0.00,meteobridge,2013-07-14 06:24:00,
2013-07-14 02:29:00,73.2,72.3,30.30,South,175,0.0,0.0,97,0.00,,,0.00,meteobridge,2013-07-14 06:29:00,
2013-07-14 02:35:00,73.2,72.3,30.31,South,175,0.0,0.0,97,0.00,,,0.00,meteobridge,2013-07-14 06:35:00,
2013-07-14 02:40:00,73.2,72.3,30.31,South,175,0.9,0.9,97,0.00,,,0.00,meteobridge,2013-07-14 06:40:00,
2013-07-14 02:45:00,73.0,72.1,30.30,South,175,0.0,0.0,97,0.00,,,0.00,meteobridge,2013-07-14 06:45:00,
2013-07-14 02:50:00,73.0,72.1,30.30,South,175,0.0,0.0,97,0.00,,,0.00,meteobridge,2013-07-14 06:50:00,
2013-07-14 02:56:00,73.0,72.1,30.30,South,175,0.0,0.0,97,0.00,,,0.00,meteobridge,2013-07-14 06:56:00,
2013-07-14 03:01:00,73.0,72.1,30.30,South,175,0.0,0.0,97,0.00,,,0.00,meteobridge,2013-07-14 07:01:00,
2013-07-14 03:06:00,73.0,72.1,30.30,South,175,0.0,0.0,97,0.00,,,0.00,meteobridge,2013-07-14 07:06:00,
2013-07-14 03:11:00,73.0,72.1,30.30,South,175,0.0,0.0,97,0.00,,,0.00,meteobridge,2013-07-14 07:11:00,
2013-07-14 03:17:00,73.0,72.1,30.30,South,175,0.0,0.0,97,0.00,,,0.00,meteobridge,2013-07-14 07:17:00,
2013-07-14 03:22:00,73.0,72.1,30.30,South,175,0.0,0.0,97,0.00,,,0.00,meteobridge,2013-07-14 07:22:00,
2013-07-14 03:27:00,73.0,72.1,30.31,South,175,0.0,0.0,97,0.00,,,0.00,meteobridge,2013-07-14 07:27:00,
2013-07-14 03:33:00,73.0,72.1,30.30,South,175,0.0,0.0,97,0.00,,,0.00,meteobridge,2013-07-14 07:33:00,
2013-07-14 03:38:00,72.9,72.0,30.30,South,175,0.0,0.0,97,0.00,,,0.00,meteobridge,2013-07-14 07:38:00,
2013-07-14 03:43:00,73.0,72.1,30.31,South,175,0.0,0.0,97,0.00,,,0.00,meteobridge,2013-07-14 07:43:00,
2013-07-14 03:48:00,72.9,72.0,30.30,South,175,0.0,0.0,97,0.00,,,0.00,meteobridge,2013-07-14 07:48:00,
2013-07-14 03:53:00,72.9,72.0,30.30,South,175,0.0,0.0,97,0.00,,,0.00,meteobridge,2013-07-14 07:53:00,
2013-07-14 03:59:00,72.9,72.0,30.30,South,175,0.0,0.0,97,0.00,,,0.00,meteobridge,2013-07-14 07:59:00,
2013-07-14 04:04:00,72.7,71.8,30.30,South,175,0.0,0.0,97,0.00,,,0.00,meteobridge,2013-07-14 08:04:00,
2013-07-14 04:10:00,72.7,72.1,30.30,South,175,0.0,0.0,98,0.00,,,0.00,meteobridge,2013-07-14 08:10:00,
2013-07-14 04:15:00,72.7,72.1,30.30,South,175,0.0,0.0,98,0.00,,,0.00,meteobridge,2013-07-14 08:15:00,
2013-07-14 04:20:00,72.7,72.1,30.30,South,175,0.0,0.0,98,0.00,,,0.00,meteobridge,2013-07-14 08:20:00,
2013-07-14 04:26:00,72.5,72.0,30.30,South,175,0.0,0.0,98,0.00,,,0.00,meteobridge,2013-07-14 08:26:00,
2013-07-14 04:31:00,72.5,72.0,30.30,South,175,0.0,0.0,98,0.00,,,0.00,meteobridge,2013-07-14 08:31:00,
2013-07-14 04:37:00,72.5,72.0,30.30,South,175,0.0,0.0,98,0.00,,,0.00,meteobridge,2013-07-14 08:37:00,
2013-07-14 04:42:00,72.3,71.8,30.31,South,175,0.0,0.0,98,0.00,,,0.00,meteobridge,2013-07-14 08:42:00,
2013-07-14 04:47:00,72.3,71.8,30.31,South,175,0.0,0.0,98,0.00,,,0.00,meteobridge,2013-07-14 08:47:00,
2013-07-14 04:52:00,72.3,71.8,30.31,South,175,0.0,0.0,98,0.00,,,0.00,meteobridge,2013-07-14 08:52:00,
2013-07-14 04:58:00,72.3,71.8,30.30,South,175,0.0,0.0,98,0.00,,,0.00,meteobridge,2013-07-14 08:58:00,
2013-07-14 05:03:00,72.3,71.8,30.31,South,175,0.0,0.0,98,0.00,,,0.00,meteobridge,2013-07-14 09:03:00,
2013-07-14 05:08:00,72.3,71.8,30.31,South,175,0.0,0.0,98,0.00,,,0.00,meteobridge,2013-07-14 09:08:00,
2013-07-14 05:13:00,72.1,71.6,30.31,South,175,0.0,0.0,98,0.00,,,0.00,meteobridge,2013-07-14 09:13:00,
2013-07-14 05:19:00,72.1,71.6,30.31,South,175,0.0,0.0,98,0.00,,,0.00,meteobridge,2013-07-14 09:19:00,
2013-07-14 05:24:00,72.1,71.6,30.30,South,175,0.0,0.0,98,0.01,,,0.01,meteobridge,2013-07-14 09:24:00,
2013-07-14 05:29:00,72.1,71.6,30.31,South,175,0.0,0.0,98,0.01,,,0.01,meteobridge,2013-07-14 09:29:00,
2013-07-14 05:34:00,72.0,71.4,30.31,South,175,0.0,0.0,98,0.01,,,0.01,meteobridge,2013-07-14 09:34:00,
2013-07-14 05:39:00,72.0,71.4,30.31,South,175,0.0,0.0,98,0.01,,,0.01,meteobridge,2013-07-14 09:39:00,
2013-07-14 05:45:00,72.0,71.4,30.31,South,175,0.9,0.9,98,0.01,,,0.01,meteobridge,2013-07-14 09:45:00,
2013-07-14 05:50:00,72.0,71.4,30.31,SSW,207,0.0,0.9,98,0.01,,,0.01,meteobridge,2013-07-14 09:50:00,
2013-07-14 05:55:00,72.0,71.4,30.31,WSW,257,0.0,0.9,98,0.01,,,0.01,meteobridge,2013-07-14 09:55:00,
2013-07-14 06:00:00,72.0,71.4,30.31,WSW,257,0.9,0.9,98,0.01,,,0.01,meteobridge,2013-07-14 10:00:00,
2013-07-14 06:06:00,72.0,71.4,30.31,WSW,257,2.0,2.0,98,0.01,,,0.01,meteobridge,2013-07-14 10:06:00,
2013-07-14 06:11:00,72.0,71.4,30.31,WSW,257,0.0,0.9,98,0.01,,,0.01,meteobridge,2013-07-14 10:11:00,
2013-07-14 06:16:00,72.0,71.6,30.31,WSW,257,0.9,0.9,99,0.01,,,0.01,meteobridge,2013-07-14 10:16:00,
2013-07-14 06:21:00,72.1,71.6,30.31,West,269,0.9,0.9,98,0.00,,,0.01,meteobridge,2013-07-14 10:21:00,
2013-07-14 06:26:00,72.1,71.8,30.31,West,273,2.9,2.9,99,0.00,,,0.01,meteobridge,2013-07-14 10:26:00,
2013-07-14 06:31:00,72.3,72.0,30.32,West,266,2.9,2.9,99,0.00,,,0.01,meteobridge,2013-07-14 10:31:00,
2013-07-14 06:36:00,72.5,72.1,30.32,WNW,292,2.0,2.9,99,0.00,,,0.01,meteobridge,2013-07-14 10:36:00,
2013-07-14 06:41:00,72.7,72.3,30.32,WSW,253,2.0,2.9,99,0.00,,,0.01,meteobridge,2013-07-14 10:41:00,
2013-07-14 06:46:00,72.7,72.3,30.31,West,263,2.0,2.0,99,0.00,,,0.01,meteobridge,2013-07-14 10:46:00,
2013-07-14 06:52:00,72.7,72.3,30.31,WSW,257,0.0,0.9,99,0.00,,,0.01,meteobridge,2013-07-14 10:52:00,
2013-07-14 06:57:00,72.7,72.3,30.31,WSW,257,0.0,2.0,99,0.00,,,0.01,meteobridge,2013-07-14 10:57:00,
2013-07-14 07:02:00,72.7,72.3,30.31,WSW,257,0.0,2.9,99,0.00,,,0.01,meteobridge,2013-07-14 11:02:00,
2013-07-14 07:07:00,72.7,72.3,30.31,West,265,0.9,2.0,99,0.00,,,0.01,meteobridge,2013-07-14 11:07:00,
2013-07-14 07:13:00,72.7,72.1,30.31,West,276,0.0,2.0,98,0.00,,,0.01,meteobridge,2013-07-14 11:13:00,
2013-07-14 07:18:00,72.7,72.1,30.31,West,263,0.9,2.9,98,0.00,,,0.01,meteobridge,2013-07-14 11:18:00,
2013-07-14 07:23:00,72.9,72.3,30.31,West,259,2.0,2.9,98,0.00,,,0.01,meteobridge,2013-07-14 11:23:00,
2013-07-14 07:28:00,73.0,72.5,30.32,WSW,240,0.0,6.9,98,0.00,,,0.01,meteobridge,2013-07-14 11:28:00,
2013-07-14 07:34:00,73.2,72.9,30.32,WSW,240,0.0,2.0,99,0.00,,,0.01,meteobridge,2013-07-14 11:34:00,
2013-07-14 07:39:00,73.6,73.2,30.32,West,266,0.9,2.0,99,0.00,,,0.01,meteobridge,2013-07-14 11:39:00,
2013-07-14 07:44:00,73.8,73.4,30.32,WSW,244,2.9,4.9,99,0.00,,,0.01,meteobridge,2013-07-14 11:44:00,
2013-07-14 07:49:00,73.8,73.2,30.32,WSW,257,0.0,2.9,98,0.00,,,0.01,meteobridge,2013-07-14 11:49:00,
2013-07-14 07:54:00,73.9,73.4,30.32,WSW,249,0.0,2.0,98,0.00,,,0.01,meteobridge,2013-07-14 11:54:00,
2013-07-14 07:59:00,73.9,73.4,30.32,SSW,194,0.9,2.9,98,0.00,,,0.01,meteobridge,2013-07-14 11:59:00,
2013-07-14 08:05:00,74.1,73.2,30.32,WSW,251,0.0,2.9,97,0.00,,,0.01,meteobridge,2013-07-14 12:05:00,
2013-07-14 08:10:00,74.1,73.2,30.32,NW,304,0.0,6.0,97,0.00,,,0.01,meteobridge,2013-07-14 12:10:00,
2013-07-14 08:15:00,74.1,73.2,30.33,NNW,327,0.9,4.9,97,0.00,,,0.01,meteobridge,2013-07-14 12:15:00,
2013-07-14 08:20:00,74.1,73.2,30.32,WSW,242,2.0,2.0,97,0.00,,,0.01,meteobridge,2013-07-14 12:20:00,
2013-07-14 08:26:00,74.3,73.4,30.33,West,264,2.0,2.0,97,0.00,,,0.01,meteobridge,2013-07-14 12:26:00,
2013-07-14 08:31:00,74.5,73.2,30.33,WSW,250,0.9,2.0,96,0.00,,,0.01,meteobridge,2013-07-14 12:31:00,
2013-07-14 08:36:00,74.7,73.8,30.32,WNW,285,0.0,2.0,97,0.00,,,0.01,meteobridge,2013-07-14 12:36:00,
2013-07-14 08:41:00,74.8,73.6,30.32,WNW,285,0.0,0.9,96,0.00,,,0.01,meteobridge,2013-07-14 12:41:00,
2013-07-14 08:47:00,75.0,73.4,30.33,WNW,289,0.0,2.0,95,0.00,,,0.01,meteobridge,2013-07-14 12:47:00,
2013-07-14 08:52:00,75.0,73.4,30.32,NW,305,0.0,0.0,95,0.00,,,0.01,meteobridge,2013-07-14 12:52:00,
2013-07-14 08:57:00,75.4,73.8,30.32,WSW,250,4.0,4.9,95,0.00,,,0.01,meteobridge,2013-07-14 12:57:00,
2013-07-14 09:03:00,75.7,74.1,30.32,NW,312,0.0,4.9,95,0.00,,,0.01,meteobridge,2013-07-14 13:03:00,
2013-07-14 09:08:00,76.5,74.3,30.32,WSW,252,0.0,6.0,93,0.00,,,0.01,meteobridge,2013-07-14 13:08:00,
2013-07-14 09:13:00,76.8,74.7,30.32,WSW,247,2.0,4.0,93,0.00,,,0.01,meteobridge,2013-07-14 13:13:00,
2013-07-14 09:18:00,77.2,74.3,30.32,West,271,0.9,2.0,91,0.00,,,0.01,meteobridge,2013-07-14 13:18:00,
2013-07-14 09:23:00,77.5,74.7,30.32,WNW,294,4.9,4.9,91,0.00,,,0.01,meteobridge,2013-07-14 13:23:00,
2013-07-14 09:29:00,77.9,75.0,30.32,West,279,0.9,4.9,91,0.00,,,0.01,meteobridge,2013-07-14 13:29:00,
2013-07-14 09:34:00,78.3,75.0,30.32,West,281,0.0,2.0,90,0.00,,,0.01,meteobridge,2013-07-14 13:34:00,
2013-07-14 09:39:00,78.4,74.7,30.32,WSW,248,0.9,6.9,88,0.00,,,0.01,meteobridge,2013-07-14 13:39:00,
2013-07-14 09:45:00,78.8,74.7,30.32,NW,315,2.0,2.9,87,0.00,,,0.01,meteobridge,2013-07-14 13:45:00,
2013-07-14 09:50:00,79.0,74.8,30.32,WNW,293,0.0,2.0,87,0.00,,,0.01,meteobridge,2013-07-14 13:50:00,
2013-07-14 09:55:00,79.2,75.0,30.32,WNW,284,0.0,2.9,87,0.00,,,0.01,meteobridge,2013-07-14 13:55:00,
2013-07-14 10:00:00,79.5,75.4,30.32,NW,307,0.0,2.0,87,0.00,,,0.01,meteobridge,2013-07-14 14:00:00,
2013-07-14 10:06:00,79.9,74.7,30.32,NW,312,0.0,4.9,84,0.00,,,0.01,meteobridge,2013-07-14 14:06:00,
2013-07-14 10:11:00,79.9,74.7,30.32,NNE,22,0.9,4.9,84,0.00,,,0.01,meteobridge,2013-07-14 14:11:00,
2013-07-14 10:16:00,80.1,73.8,30.32,NW,319,0.9,8.1,81,0.00,,,0.01,meteobridge,2013-07-14 14:16:00,
2013-07-14 10:22:00,80.2,74.3,30.32,West,271,2.0,8.1,82,0.00,,,0.01,meteobridge,2013-07-14 14:22:00,
2013-07-14 10:27:00,80.2,73.6,30.32,NW,313,0.9,2.9,80,0.00,,,0.01,meteobridge,2013-07-14 14:27:00,
2013-07-14 10:33:00,80.2,74.3,30.32,NNW,337,2.0,2.9,82,0.00,,,0.01,meteobridge,2013-07-14 14:33:00,
2013-07-14 10:38:00,80.2,73.9,30.32,NE,44,0.9,0.9,81,0.00,,,0.01,meteobridge,2013-07-14 14:38:00,
2013-07-14 10:44:00,80.2,72.7,30.32,West,275,2.0,4.0,78,0.00,,,0.01,meteobridge,2013-07-14 14:44:00,
2013-07-14 10:49:00,80.6,74.3,30.32,West,267,2.9,6.0,81,0.00,,,0.01,meteobridge,2013-07-14 14:49:00,
2013-07-14 10:54:00,80.8,74.8,30.32,West,261,2.0,4.0,82,0.00,,,0.01,meteobridge,2013-07-14 14:54:00,
2013-07-14 11:00:00,81.1,73.9,30.32,West,271,2.9,6.0,79,0.00,,,0.01,meteobridge,2013-07-14 15:00:00,
2013-07-14 11:05:00,81.3,73.4,30.31,West,279,2.0,2.0,77,0.00,,,0.01,meteobridge,2013-07-14 15:05:00,
2013-07-14 11:11:00,81.7,73.4,30.31,NNW,333,0.0,0.9,76,0.00,,,0.01,meteobridge,2013-07-14 15:11:00,
2013-07-14 11:16:00,81.7,73.4,30.31,West,275,0.0,4.0,76,0.00,,,0.01,meteobridge,2013-07-14 15:16:00,
2013-07-14 11:21:00,81.7,73.4,30.31,WNW,301,0.9,0.9,76,0.00,,,0.01,meteobridge,2013-07-14 15:21:00,
2013-07-14 11:27:00,81.7,73.8,30.32,WSW,252,4.0,6.0,77,0.00,,,0.01,meteobridge,2013-07-14 15:27:00,
2013-07-14 11:32:00,82.0,74.1,30.31,WNW,283,0.9,2.0,77,0.00,,,0.01,meteobridge,2013-07-14 15:32:00,
2013-07-14 11:37:00,82.2,73.0,30.31,NE,38,2.0,2.9,74,0.00,,,0.01,meteobridge,2013-07-14 15:37:00,
2013-07-14 11:42:00,82.2,73.0,30.31,North,11,2.0,2.9,74,0.00,,,0.01,meteobridge,2013-07-14 15:42:00,
2013-07-14 11:48:00,82.4,73.8,30.31,NNW,342,0.0,4.0,75,0.00,,,0.01,meteobridge,2013-07-14 15:48:00,
2013-07-14 11:53:00,82.2,72.7,30.31,WNW,296,0.9,4.0,73,0.00,,,0.01,meteobridge,2013-07-14 15:53:00,
2013-07-14 11:58:00,82.4,73.8,30.31,NNW,336,0.0,2.0,75,0.00,,,0.01,meteobridge,2013-07-14 15:58:00,
2013-07-14 12:04:00,82.8,73.6,30.31,WSW,255,2.9,4.9,74,0.00,,,0.01,meteobridge,2013-07-14 16:04:00,
2013-07-14 12:09:00,82.8,73.2,30.31,WNW,294,0.9,2.0,73,0.00,,,0.01,meteobridge,2013-07-14 16:09:00,
2013-07-14 12:14:00,82.8,73.6,30.31,NW,326,2.0,2.9,74,0.00,,,0.01,meteobridge,2013-07-14 16:14:00,
2013-07-14 12:19:00,82.8,73.6,30.31,WNW,284,0.0,2.9,74,0.00,,,0.01,meteobridge,2013-07-14 16:19:00,
2013-07-14 12:24:00,82.9,73.4,30.30,West,267,0.9,2.0,73,0.00,,,0.01,meteobridge,2013-07-14 16:24:00,
2013-07-14 12:29:00,83.1,73.6,30.30,NW,326,0.9,6.0,73,0.00,,,0.01,meteobridge,2013-07-14 16:29:00,
2013-07-14 12:35:00,83.5,73.6,30.30,East,89,0.0,0.9,72,0.00,,,0.01,meteobridge,2013-07-14 16:35:00,
2013-07-14 12:40:00,83.7,73.2,30.30,North,355,0.0,2.9,71,0.00,,,0.01,meteobridge,2013-07-14 16:40:00,
2013-07-14 12:45:00,83.8,73.0,30.30,North,349,0.9,4.9,70,0.00,,,0.01,meteobridge,2013-07-14 16:45:00,
2013-07-14 12:50:00,84.0,73.9,30.30,SW,234,0.0,4.9,72,0.00,,,0.01,meteobridge,2013-07-14 16:50:00,
2013-07-14 12:56:00,84.4,73.9,30.29,West,265,2.0,4.9,71,0.00,,,0.01,meteobridge,2013-07-14 16:56:00,
2013-07-14 13:01:00,84.4,73.0,30.29,NNE,22,0.9,2.0,69,0.00,,,0.01,meteobridge,2013-07-14 17:01:00,
2013-07-14 13:06:00,84.7,74.7,30.29,West,271,0.9,4.0,72,0.00,,,0.01,meteobridge,2013-07-14 17:06:00,
2013-07-14 13:11:00,84.9,73.6,30.29,NW,311,0.0,2.0,69,0.00,,,0.01,meteobridge,2013-07-14 17:11:00,
2013-07-14 13:17:00,85.3,73.6,30.29,NE,34,4.0,4.9,68,0.00,,,0.01,meteobridge,2013-07-14 17:17:00,
2013-07-14 13:22:00,85.5,74.5,30.29,West,272,2.0,6.9,70,0.00,,,0.01,meteobridge,2013-07-14 17:22:00,
2013-07-14 13:27:00,85.6,73.0,30.29,WNW,287,2.9,4.9,66,0.00,,,0.01,meteobridge,2013-07-14 17:27:00,
2013-07-14 13:33:00,85.8,73.6,30.29,West,262,0.9,6.9,67,0.00,,,0.01,meteobridge,2013-07-14 17:33:00,
2013-07-14 13:38:00,85.8,74.5,30.29,WNW,283,0.9,2.0,69,0.00,,,0.01,meteobridge,2013-07-14 17:38:00,
2013-07-14 13:43:00,85.6,73.4,30.29,WNW,290,0.0,4.0,67,0.00,,,0.01,meteobridge,2013-07-14 17:43:00,
2013-07-14 13:49:00,85.5,73.2,30.29,North,9,0.0,4.0,67,0.00,,,0.01,meteobridge,2013-07-14 17:49:00,
2013-07-14 13:54:00,85.8,73.9,30.28,NE,47,0.9,4.0,68,0.00,,,0.01,meteobridge,2013-07-14 17:54:00,
2013-07-14 14:00:00,86.4,73.2,30.28,NW,310,0.0,2.0,65,0.00,,,0.01,meteobridge,2013-07-14 18:00:00,
2013-07-14 14:05:00,86.5,72.9,30.28,NNE,29,4.0,4.0,64,0.00,,,0.01,meteobridge,2013-07-14 18:05:00,
2013-07-14 14:10:00,86.5,72.9,30.28,NNE,12,2.0,2.0,64,0.00,,,0.01,meteobridge,2013-07-14 18:10:00,
2013-07-14 14:16:00,86.7,73.6,30.28,East,81,0.0,2.9,65,0.00,,,0.01,meteobridge,2013-07-14 18:16:00,
2013-07-14 14:21:00,86.9,73.2,30.28,WNW,290,0.9,4.9,64,0.00,,,0.01,meteobridge,2013-07-14 18:21:00,
2013-07-14 14:27:00,87.1,73.9,30.27,West,279,6.0,8.1,65,0.00,,,0.01,meteobridge,2013-07-14 18:27:00,
2013-07-14 14:32:00,87.1,74.8,30.27,NNW,347,0.0,2.0,67,0.00,,,0.01,meteobridge,2013-07-14 18:32:00,
2013-07-14 14:37:00,87.3,73.0,30.27,NNE,19,2.0,4.9,63,0.00,,,0.01,meteobridge,2013-07-14 18:37:00,
2013-07-14 14:43:00,87.3,73.0,30.27,West,273,0.9,2.0,63,0.00,,,0.01,meteobridge,2013-07-14 18:43:00,
2013-07-14 14:48:00,87.3,75.0,30.27,WSW,250,2.9,2.9,67,0.00,,,0.01,meteobridge,2013-07-14 18:48:00,
2013-07-14 14:53:00,87.6,73.0,30.27,NNW,335,2.0,6.0,62,0.00,,,0.01,meteobridge,2013-07-14 18:53:00,
2013-07-14 14:59:00,87.8,75.0,30.27,North,350,2.0,4.9,66,0.00,,,0.01,meteobridge,2013-07-14 18:59:00,
2013-07-14 15:04:00,87.8,73.2,30.26,NNE,29,0.9,4.9,62,0.00,,,0.01,meteobridge,2013-07-14 19:04:00,
2013-07-14 15:10:00,88.0,74.7,30.26,NW,324,0.0,2.0,65,0.00,,,0.01,meteobridge,2013-07-14 19:10:00,
2013-07-14 15:15:00,88.3,74.1,30.26,WSW,252,0.0,2.9,63,0.00,,,0.01,meteobridge,2013-07-14 19:15:00,
2013-07-14 15:20:00,88.5,73.4,30.26,North,5,0.9,0.9,61,0.00,,,0.01,meteobridge,2013-07-14 19:20:00,
2013-07-14 15:25:00,88.5,72.3,30.26,NW,320,2.0,4.9,59,0.00,,,0.01,meteobridge,2013-07-14 19:25:00,
2013-07-14 15:31:00,88.3,71.6,30.25,NW,325,0.0,4.9,58,0.00,,,0.01,meteobridge,2013-07-14 19:31:00,
2013-07-14 15:36:00,88.3,72.1,30.25,WSW,248,0.9,4.0,59,0.00,,,0.01,meteobridge,2013-07-14 19:36:00,
2013-07-14 15:41:00,88.3,72.1,30.25,SW,226,0.9,6.0,59,0.00,,,0.01,meteobridge,2013-07-14 19:41:00,
2013-07-14 15:47:00,88.3,73.6,30.25,WNW,286,2.9,6.0,62,0.00,,,0.01,meteobridge,2013-07-14 19:47:00,
2013-07-14 15:52:00,88.3,73.2,30.24,SSW,207,2.0,4.9,61,0.00,,,0.01,meteobridge,2013-07-14 19:52:00,
2013-07-14 15:57:00,88.3,74.7,30.24,West,269,4.0,4.0,64,0.00,,,0.01,meteobridge,2013-07-14 19:57:00,
2013-07-14 16:02:00,88.5,73.4,30.24,West,272,8.1,8.9,61,0.00,,,0.01,meteobridge,2013-07-14 20:02:00,
2013-07-14 16:08:00,88.7,73.0,30.24,West,279,0.0,2.0,60,0.00,,,0.01,meteobridge,2013-07-14 20:08:00,
2013-07-14 16:13:00,88.9,74.1,30.24,WNW,301,2.0,2.9,62,0.00,,,0.01,meteobridge,2013-07-14 20:13:00,
2013-07-14 16:18:00,88.7,73.9,30.24,WSW,253,0.9,2.9,62,0.00,,,0.01,meteobridge,2013-07-14 20:18:00,
2013-07-14 16:23:00,88.9,72.7,30.24,NNE,30,0.9,4.0,59,0.00,,,0.01,meteobridge,2013-07-14 20:23:00,
2013-07-14 16:28:00,89.1,73.4,30.24,WSW,244,2.0,4.0,60,0.00,,,0.01,meteobridge,2013-07-14 20:28:00,
2013-07-14 16:34:00,88.9,73.2,30.24,SW,227,0.9,6.9,60,0.00,,,0.01,meteobridge,2013-07-14 20:34:00,
2013-07-14 16:39:00,88.5,72.3,30.24,West,270,2.0,4.9,59,0.00,,,0.01,meteobridge,2013-07-14 20:39:00,
2013-07-14 16:44:00,88.3,73.6,30.24,NNW,337,0.9,6.0,62,0.00,,,0.01,meteobridge,2013-07-14 20:44:00,
2013-07-14 16:49:00,88.3,75.0,30.24,West,277,0.9,2.0,65,0.00,,,0.01,meteobridge,2013-07-14 20:49:00,
2013-07-14 16:51:00,88.3,75.0,30.24,West,275,0.9,2.0,65,0.00,,,0.01,meteobridge,2013-07-14 20:51:00,
2013-07-14 16:56:00,88.3,74.1,30.24,SW,214,0.0,0.9,63,0.00,,,0.01,meteobridge,2013-07-14 20:56:00,
2013-07-14 17:01:00,88.0,72.3,30.23,West,261,2.9,6.9,60,0.00,,,0.01,meteobridge,2013-07-14 21:01:00,
2013-07-14 17:02:00,88.0,72.3,30.23,West,275,2.9,4.9,60,0.00,,,0.01,meteobridge,2013-07-14 21:02:00,
2013-07-14 17:07:00,87.6,72.5,30.23,WNW,298,0.0,4.9,61,0.00,,,0.01,meteobridge,2013-07-14 21:07:00,
2013-07-14 17:13:00,87.4,73.2,30.23,WSW,245,2.9,4.9,63,0.00,,,0.01,meteobridge,2013-07-14 21:13:00,
2013-07-14 17:19:00,87.3,73.0,30.23,WNW,298,0.0,2.0,63,0.00,,,0.01,meteobridge,2013-07-14 21:19:00,
2013-07-14 17:24:00,87.3,72.7,30.23,North,5,0.9,0.9,62,0.00,,,0.01,meteobridge,2013-07-14 21:24:00,
2013-07-14 17:30:00,87.3,73.0,30.23,West,265,0.9,4.9,63,0.00,,,0.01,meteobridge,2013-07-14 21:30:00,
2013-07-14 17:35:00,87.3,73.6,30.23,West,271,0.0,4.0,64,0.00,,,0.01,meteobridge,2013-07-14 21:35:00,
2013-07-14 17:40:00,87.3,73.0,30.23,WNW,302,0.0,2.0,63,0.00,,,0.01,meteobridge,2013-07-14 21:40:00,
2013-07-14 17:46:00,87.3,73.6,30.23,NNW,332,2.0,4.0,64,0.00,,,0.01,meteobridge,2013-07-14 21:46:00,
2013-07-14 17:51:00,87.4,73.8,30.23,WNW,296,0.9,2.9,64,0.00,,,0.01,meteobridge,2013-07-14 21:51:00,
2013-07-14 17:57:00,87.4,75.2,30.23,NW,311,0.9,4.9,67,0.00,,,0.01,meteobridge,2013-07-14 21:57:00,
2013-07-14 18:02:00,87.3,74.5,30.22,WNW,289,0.0,2.0,66,0.00,,,0.01,meteobridge,2013-07-14 22:02:00,
2013-07-14 18:07:00,87.1,73.9,30.22,West,274,0.0,2.0,65,0.00,,,0.01,meteobridge,2013-07-14 22:07:00,
2013-07-14 18:13:00,86.7,74.5,30.22,West,274,0.0,0.0,67,0.00,,,0.01,meteobridge,2013-07-14 22:13:00,
2013-07-14 18:18:00,86.7,73.9,30.22,NE,38,0.0,2.9,66,0.00,,,0.01,meteobridge,2013-07-14 22:18:00,
2013-07-14 18:23:00,86.5,74.7,30.22,NW,321,0.0,6.0,68,0.00,,,0.01,meteobridge,2013-07-14 22:23:00,
2013-07-14 18:29:00,86.4,74.1,30.23,NNW,329,0.0,2.0,67,0.00,,,0.01,meteobridge,2013-07-14 22:29:00,
2013-07-14 18:35:00,86.4,74.1,30.23,West,263,0.0,0.0,67,0.00,,,0.01,meteobridge,2013-07-14 22:35:00,
2013-07-14 18:40:00,86.4,75.0,30.22,NW,319,0.9,0.9,69,0.00,,,0.01,meteobridge,2013-07-14 22:40:00,
2013-07-14 18:45:00,86.4,73.6,30.22,WNW,284,4.0,4.0,66,0.00,,,0.01,meteobridge,2013-07-14 22:45:00,
2013-07-14 18:50:00,86.4,74.1,30.22,WNW,288,0.0,4.9,67,0.00,,,0.01,meteobridge,2013-07-14 22:50:00,
2013-07-14 18:56:00,86.4,73.6,30.22,North,5,0.9,2.0,66,0.00,,,0.01,meteobridge,2013-07-14 22:56:00,
2013-07-14 19:01:00,86.4,73.2,30.22,WNW,285,2.0,2.9,65,0.00,,,0.01,meteobridge,2013-07-14 23:01:00,
2013-07-14 19:06:00,86.4,74.5,30.22,West,263,0.9,2.0,68,0.00,,,0.01,meteobridge,2013-07-14 23:06:00,
2013-07-14 19:12:00,86.2,74.8,30.22,West,269,0.9,0.9,69,0.00,,,0.01,meteobridge,2013-07-14 23:12:00,
2013-07-14 19:17:00,86.2,74.3,30.22,West,281,0.9,4.0,68,0.00,,,0.01,meteobridge,2013-07-14 23:17:00,
2013-07-14 19:22:00,85.8,73.9,30.22,West,281,0.0,0.9,68,0.00,,,0.01,meteobridge,2013-07-14 23:22:00,
2013-07-14 19:27:00,85.8,74.5,30.22,West,279,0.0,2.0,69,0.00,,,0.01,meteobridge,2013-07-14 23:27:00,
2013-07-14 19:32:00,85.6,74.3,30.22,WNW,302,0.0,0.0,69,0.00,,,0.01,meteobridge,2013-07-14 23:32:00,
2013-07-14 19:37:00,85.5,75.4,30.22,WNW,302,0.0,0.0,72,0.00,,,0.01,meteobridge,2013-07-14 23:37:00,
2013-07-14 19:42:00,85.3,75.6,30.22,SSE,161,0.0,0.9,73,0.00,,,0.01,meteobridge,2013-07-14 23:42:00,
2013-07-14 19:47:00,85.1,75.9,30.22,SSE,161,0.0,0.9,74,0.00,,,0.01,meteobridge,2013-07-14 23:47:00,
2013-07-14 19:53:00,84.7,75.9,30.22,SSE,161,0.0,0.0,75,0.00,,,0.01,meteobridge,2013-07-14 23:53:00,
2013-07-14 19:59:00,84.4,75.9,30.22,SSE,161,0.0,0.0,76,0.00,,,0.01,meteobridge,2013-07-14 23:59:00,
2013-07-14 20:04:00,84.0,76.5,30.22,SSE,161,0.0,0.0,78,0.00,,,0.00,meteobridge,2013-07-15 00:04:00,
2013-07-14 20:09:00,83.7,76.1,30.22,SSE,161,0.0,0.0,78,0.00,,,0.00,meteobridge,2013-07-15 00:09:00,
2013-07-14 20:14:00,83.5,76.3,30.23,SSE,161,0.0,0.0,79,0.00,,,0.00,meteobridge,2013-07-15 00:14:00,
2013-07-14 20:20:00,82.9,76.1,30.23,SSE,161,0.0,0.0,80,0.00,,,0.00,meteobridge,2013-07-15 00:20:00,
2013-07-14 20:25:00,82.8,76.3,30.23,SSE,161,0.0,0.0,81,0.00,,,0.00,meteobridge,2013-07-15 00:25:00,
2013-07-14 20:30:00,82.2,75.7,30.23,SSE,161,0.0,0.0,81,0.00,,,0.00,meteobridge,2013-07-15 00:30:00,
2013-07-14 20:36:00,82.0,75.6,30.23,SSE,161,0.0,0.0,81,0.00,,,0.00,meteobridge,2013-07-15 00:36:00,
2013-07-14 20:41:00,81.7,75.9,30.23,SSE,161,0.0,0.0,83,0.00,,,0.00,meteobridge,2013-07-15 00:41:00,
2013-07-14 20:46:00,81.1,75.6,30.23,SSE,161,0.0,0.0,83,0.00,,,0.00,meteobridge,2013-07-15 00:46:00,
2013-07-14 20:51:00,81.0,75.7,30.23,SSE,161,0.0,0.0,84,0.00,,,0.00,meteobridge,2013-07-15 00:51:00,
2013-07-14 20:57:00,80.8,75.6,30.22,SSE,161,0.0,0.0,84,0.00,,,0.00,meteobridge,2013-07-15 00:57:00,
2013-07-14 21:03:00,80.2,75.0,30.23,SSE,161,0.0,0.0,84,0.00,,,0.00,meteobridge,2013-07-15 01:03:00,
2013-07-14 21:08:00,80.1,75.2,30.23,SSE,161,0.0,0.0,85,0.00,,,0.00,meteobridge,2013-07-15 01:08:00,
2013-07-14 21:13:00,79.9,75.0,30.23,SSE,161,0.0,0.0,85,0.00,,,0.00,meteobridge,2013-07-15 01:13:00,
2013-07-14 21:19:00,79.7,75.2,30.23,SSE,161,0.0,0.0,86,0.00,,,0.00,meteobridge,2013-07-15 01:19:00,
2013-07-14 21:24:00,79.5,75.0,30.23,SSE,161,0.0,0.0,86,0.00,,,0.00,meteobridge,2013-07-15 01:24:00,
2013-07-14 21:29:00,79.2,74.7,30.23,SSE,161,0.0,0.0,86,0.00,,,0.00,meteobridge,2013-07-15 01:29:00,
2013-07-14 21:34:00,79.0,74.8,30.24,SSE,161,0.0,0.0,87,0.00,,,0.00,meteobridge,2013-07-15 01:34:00,
2013-07-14 21:39:00,79.0,74.8,30.23,SSE,161,0.0,0.0,87,0.00,,,0.00,meteobridge,2013-07-15 01:39:00,
2013-07-14 21:45:00,78.6,74.5,30.23,SSE,161,0.0,0.0,87,0.00,,,0.00,meteobridge,2013-07-15 01:45:00,
2013-07-14 21:50:00,78.6,74.8,30.23,SSE,161,0.0,0.0,88,0.00,,,0.00,meteobridge,2013-07-15 01:50:00,
2013-07-14 21:56:00,78.4,74.3,30.23,SSE,161,0.0,0.0,87,0.00,,,0.00,meteobridge,2013-07-15 01:56:00,
2013-07-14 22:01:00,78.4,74.3,30.24,SSE,161,0.0,0.0,87,0.00,,,0.00,meteobridge,2013-07-15 02:01:00,
2013-07-14 22:07:00,78.4,73.9,30.24,SSE,165,0.0,0.0,86,0.00,,,0.00,meteobridge,2013-07-15 02:07:00,
2013-07-14 22:12:00,78.4,73.9,30.24,SSE,165,0.9,0.9,86,0.00,,,0.00,meteobridge,2013-07-15 02:12:00,
2013-07-14 22:18:00,78.3,73.4,30.24,West,274,0.0,0.9,85,0.00,,,0.00,meteobridge,2013-07-15 02:18:00,
2013-07-14 22:23:00,78.3,73.4,30.24,West,275,0.0,0.9,85,0.00,,,0.00,meteobridge,2013-07-15 02:23:00,
2013-07-14 22:29:00,78.4,73.6,30.23,West,259,0.0,0.9,85,0.00,,,0.00,meteobridge,2013-07-15 02:29:00,
2013-07-14 22:34:00,78.3,73.0,30.23,West,266,0.0,2.0,84,0.00,,,0.00,meteobridge,2013-07-15 02:34:00,
2013-07-14 22:39:00,78.3,73.0,30.23,West,269,2.0,2.0,84,0.00,,,0.00,meteobridge,2013-07-15 02:39:00,
2013-07-14 22:45:00,78.3,73.0,30.23,West,267,0.0,2.0,84,0.00,,,0.00,meteobridge,2013-07-15 02:45:00,
2013-07-14 22:50:00,78.4,72.9,30.23,West,267,0.0,0.0,83,0.00,,,0.00,meteobridge,2013-07-15 02:50:00,
2013-07-14 22:55:00,78.4,72.9,30.23,West,270,0.0,0.0,83,0.00,,,0.00,meteobridge,2013-07-15 02:55:00,
2013-07-14 23:00:00,78.3,72.7,30.23,WNW,288,0.0,2.0,83,0.00,,,0.00,meteobridge,2013-07-15 03:00:00,
2013-07-14 23:06:00,78.3,72.7,30.23,West,271,0.0,2.0,83,0.00,,,0.00,meteobridge,2013-07-15 03:06:00,
2013-07-14 23:11:00,78.3,73.0,30.23,West,269,0.9,4.9,84,0.00,,,0.00,meteobridge,2013-07-15 03:11:00,
2013-07-14 23:17:00,78.1,72.9,30.23,WSW,257,0.0,2.0,84,0.00,,,0.00,meteobridge,2013-07-15 03:17:00,
2013-07-14 23:22:00,78.1,72.5,30.23,WNW,290,0.0,0.9,83,0.00,,,0.00,meteobridge,2013-07-15 03:22:00,
2013-07-14 23:27:00,77.9,72.7,30.23,WSW,258,2.0,2.0,84,0.00,,,0.00,meteobridge,2013-07-15 03:27:00,
2013-07-14 23:33:00,77.9,72.7,30.23,WNW,284,0.9,4.0,84,0.00,,,0.00,meteobridge,2013-07-15 03:33:00,
2013-07-14 23:38:00,77.7,72.5,30.23,West,259,2.9,4.0,84,0.00,,,0.00,meteobridge,2013-07-15 03:38:00,
2013-07-14 23:44:00,77.7,72.5,30.23,WSW,241,2.0,4.0,84,0.00,,,0.00,meteobridge,2013-07-15 03:44:00,
2013-07-14 23:49:00,77.9,72.3,30.23,West,260,0.9,2.0,83,0.00,,,0.00,meteobridge,2013-07-15 03:49:00,
2013-07-14 23:54:00,77.9,72.3,30.23,West,259,2.0,2.0,83,0.00,,,0.00,meteobridge,2013-07-15 03:54:00,
2013-07-14 23:59:00,77.9,72.3,30.23,WSW,249,0.9,2.0,83,0.00,,,0.00,meteobridge,2013-07-15 03:59:00,